Time;durP1;ratioP1;P1;durP2;ratioP2;P2;SDS_P1;SDS_P2;PMS_P1;PMS_P2;Temp;Humidity;BMP_temperature;BMP_pressure;BME280_temperature;BME280_humidity;BME280_pressure;Samples;Min_cycle;Max_cycle;Signal;HPM_P1;HPM_P2
2022/01/05 00:01:26;;;;;;;14.07;7.22;;;;;;;10.32;69.28;98429.47;4432306;32;34439;-64
2022/01/05 00:03:54;;;;;;;9.32;4.72;;;;;;;10.04;70.49;98427.91;4437868;32;33362;-64
2022/01/05 00:06:21;;;;;;;10.90;5.53;;;;;;;10.32;70.94;98426.91;4433404;32;33601;-64
2022/01/05 00:08:49;;;;;;;8.32;4.62;;;;;;;10.71;69.63;98426.06;4448537;32;32181;-64
2022/01/05 00:11:16;;;;;;;14.00;5.40;;;;;;;10.23;71.56;98427.50;4423202;32;33498;-64
2022/01/05 00:13:44;;;;;;;11.63;5.22;;;;;;;10.77;69.41;98431.34;4443968;32;32268;-64
2022/01/05 00:16:12;;;;;;;9.43;5.18;;;;;;;10.91;68.24;98428.19;4441653;32;33708;-64
2022/01/05 00:18:40;;;;;;;10.13;5.45;;;;;;;10.72;68.97;98435.59;4444069;32;33668;-64
2022/01/05 00:21:07;;;;;;;9.40;4.82;;;;;;;10.77;67.69;98426.19;4438767;32;33894;-64
2022/01/05 00:23:34;;;;;;;9.30;4.53;;;;;;;10.95;67.88;98424.81;4444355;32;33448;-65
2022/01/05 00:26:04;;;;;;;9.27;4.53;;;;;;;11.34;66.83;98413.53;4443171;32;34620;-64
2022/01/05 00:28:31;;;;;;;9.40;4.28;;;;;;;10.84;68.35;98406.47;4435151;32;33696;-64
2022/01/05 00:30:59;;;;;;;7.60;3.67;;;;;;;10.65;69.48;98405.22;4437134;32;33984;-64
2022/01/05 00:33:28;;;;;;;8.55;4.12;;;;;;;10.69;69.51;98409.59;4439351;32;34304;-64
2022/01/05 00:35:55;;;;;;;8.10;3.95;;;;;;;10.51;70.04;98401.44;4442007;32;33730;-64
2022/01/05 00:38:23;;;;;;;7.93;3.58;;;;;;;10.63;69.44;98399.13;4448594;32;33629;-64
2022/01/05 00:40:50;;;;;;;8.25;3.78;;;;;;;11.06;67.87;98400.00;4442624;32;33973;-64
2022/01/05 00:43:18;;;;;;;8.05;3.60;;;;;;;9.89;72.44;98399.97;4443207;32;33620;-65
2022/01/05 00:45:45;;;;;;;7.20;3.97;;;;;;;10.29;71.71;98395.72;4442452;32;33893;-64
2022/01/05 00:48:13;;;;;;;7.65;3.80;;;;;;;10.73;69.50;98403.66;4443105;32;33883;-64
2022/01/05 00:50:41;;;;;;;7.50;3.95;;;;;;;10.60;69.63;98409.41;4444220;32;34206;-64
2022/01/05 00:53:08;;;;;;;8.50;2.95;;;;;;;10.54;69.94;98411.84;4440508;32;33601;-64
2022/01/05 00:55:37;;;;;;;7.03;3.47;;;;;;;10.10;72.33;98404.78;4446447;32;33962;-64
2022/01/05 00:58:05;;;;;;;6.78;3.47;;;;;;;10.73;70.34;98411.41;4440873;32;34109;-64
2022/01/05 01:00:32;;;;;;;7.60;3.97;;;;;;;10.99;68.96;98409.41;4441256;32;34620;-64
2022/01/05 01:03:00;;;;;;;7.60;3.62;;;;;;;10.51;70.58;98411.81;4440516;32;33570;-64
2022/01/05 01:05:28;;;;;;;7.22;3.30;;;;;;;10.63;70.33;98422.44;4442963;32;34249;-64
2022/01/05 01:07:55;;;;;;;8.63;3.75;;;;;;;10.45;71.06;98416.81;4441291;32;34714;-64
2022/01/05 01:10:23;;;;;;;6.55;3.45;;;;;;;10.72;69.99;98416.56;4442652;32;33417;-64
2022/01/05 01:12:50;;;;;;;7.20;3.47;;;;;;;10.80;69.55;98421.09;4438451;32;33483;-64
2022/01/05 01:15:18;;;;;;;6.47;3.30;;;;;;;10.09;71.32;98410.78;4444766;32;33934;-64
2022/01/05 01:17:45;;;;;;;6.35;3.10;;;;;;;10.80;69.04;98405.53;4443116;32;34745;-64
2022/01/05 01:20:13;;;;;;;8.60;3.30;;;;;;;11.14;67.91;98411.41;4446567;32;34869;-64
2022/01/05 01:22:40;;;;;;;6.47;3.55;;;;;;;10.93;68.47;98411.88;4441458;32;33685;-64
2022/01/05 01:25:09;;;;;;;6.18;3.28;;;;;;;10.97;68.43;98403.31;4448371;32;33702;-64
2022/01/05 01:27:37;;;;;;;8.23;3.17;;;;;;;10.51;70.12;98397.12;4441060;32;33925;-64
2022/01/05 01:30:06;;;;;;;5.80;2.92;;;;;;;10.82;69.29;98395.22;4438032;32;30541;-64
2022/01/05 01:32:33;;;;;;;6.45;3.10;;;;;;;11.02;68.15;98391.31;4424781;32;31993;-64
2022/01/05 01:35:03;;;;;;;10.80;3.30;;;;;;;10.80;69.29;98382.22;4439135;32;33444;-64
2022/01/05 01:37:31;;;;;;;6.97;4.07;;;;;;;11.08;68.11;98382.78;4439281;32;33652;-64
2022/01/05 01:39:58;;;;;;;6.87;3.15;;;;;;;10.89;68.92;98391.88;4441824;32;33486;-64
2022/01/05 01:42:26;;;;;;;7.60;3.28;;;;;;;10.52;69.45;98400.59;4437740;32;32164;-64
2022/01/05 01:44:53;;;;;;;6.32;3.37;;;;;;;10.66;69.07;98393.13;4434548;32;34099;-64
2022/01/05 01:47:21;;;;;;;7.87;3.72;;;;;;;10.13;71.77;98384.16;4434518;32;33898;-64
2022/01/05 01:49:48;;;;;;;6.18;3.35;;;;;;;10.65;70.21;98387.09;4438015;32;34576;-64
2022/01/05 01:52:16;;;;;;;8.63;4.03;;;;;;;11.00;68.65;98382.63;4439205;32;33371;-64
2022/01/05 01:54:43;;;;;;;7.28;3.22;;;;;;;10.93;68.51;98379.88;4438222;32;33838;-64
2022/01/05 01:57:11;;;;;;;5.62;3.20;;;;;;;11.01;68.35;98378.34;4438598;32;34035;-64
2022/01/05 01:59:42;;;;;;;7.32;3.22;;;;;;;10.85;68.79;98381.44;4435506;32;32556;-64
2022/01/05 02:02:10;;;;;;;7.62;3.08;;;;;;;11.27;67.33;98377.97;4444276;32;34149;-64
2022/01/05 02:04:39;;;;;;;7.80;3.10;;;;;;;10.71;69.02;98394.09;4435136;32;33944;-64
2022/01/05 02:07:07;;;;;;;6.10;2.58;;;;;;;10.98;68.43;98383.44;4436460;32;33885;-64
2022/01/05 02:09:35;;;;;;;7.55;3.08;;;;;;;10.66;70.04;98381.03;4438990;32;33509;-64
2022/01/05 02:12:07;;;;;;;6.22;2.80;;;;;;;10.75;69.79;98381.25;4446778;32;34350;-64
2022/01/05 02:14:34;;;;;;;5.70;3.10;;;;;;;10.94;68.86;98381.66;4441680;32;33832;-64
2022/01/05 02:17:08;;;;;;;6.18;3.15;;;;;;;10.96;68.89;98392.91;4443364;32;33922;-64
2022/01/05 02:19:35;;;;;;;5.70;3.00;;;;;;;11.15;68.05;98387.25;4437846;32;34034;-64
2022/01/05 02:22:04;;;;;;;6.12;3.20;;;;;;;11.15;67.76;98382.06;4443590;32;33438;-64
2022/01/05 02:24:31;;;;;;;7.60;3.90;;;;;;;11.33;66.93;98370.31;4440314;32;34569;-64
2022/01/05 02:26:59;;;;;;;7.22;3.60;;;;;;;11.20;67.07;98380.44;4438214;32;34011;-64
2022/01/05 02:29:27;;;;;;;8.57;4.95;;;;;;;11.31;67.10;98366.81;4437257;32;33819;-64
2022/01/05 02:31:56;;;;;;;8.15;5.22;;;;;;;11.04;67.77;98380.97;4438290;32;31623;-64
2022/01/05 02:34:24;;;;;;;8.88;5.22;;;;;;;11.30;66.84;98363.34;4440550;32;32179;-64
2022/01/05 02:36:52;;;;;;;8.00;3.72;;;;;;;11.26;66.98;98363.25;4433732;32;33895;-65
2022/01/05 02:39:19;;;;;;;6.12;3.35;;;;;;;11.02;67.95;98361.94;4445022;32;33950;-64
2022/01/05 02:41:47;;;;;;;7.30;3.17;;;;;;;10.39;70.39;98356.31;4445726;32;33538;-65
2022/01/05 02:44:14;;;;;;;7.25;3.62;;;;;;;10.77;69.52;98353.66;4441614;32;33791;-64
2022/01/05 02:46:41;;;;;;;13.57;4.55;;;;;;;10.75;69.40;98357.94;4439041;32;33588;-64
2022/01/05 02:49:09;;;;;;;7.60;3.60;;;;;;;11.00;68.58;98350.66;4437060;32;33892;-64
2022/01/05 02:51:37;;;;;;;6.82;3.62;;;;;;;10.62;69.83;98351.66;4437540;32;32972;-64
2022/01/05 02:54:05;;;;;;;7.57;3.50;;;;;;;10.98;68.71;98353.22;4434768;32;33811;-64
2022/01/05 02:56:32;;;;;;;6.53;3.17;;;;;;;10.78;69.42;98360.59;4436000;32;32436;-64
2022/01/05 02:59:03;;;;;;;5.82;3.37;;;;;;;10.46;70.72;98354.72;4436421;32;34851;-64
2022/01/05 03:01:31;;;;;;;7.15;3.33;;;;;;;11.04;68.72;98357.66;4441544;32;33557;-64
2022/01/05 03:03:58;;;;;;;8.93;4.18;;;;;;;10.58;69.47;98362.75;4448566;32;34387;-64
2022/01/05 03:06:26;;;;;;;9.93;5.10;;;;;;;10.76;69.31;98354.53;4437057;32;34026;-64
2022/01/05 03:08:53;;;;;;;9.52;4.85;;;;;;;10.74;69.41;98348.44;4436254;32;33794;-64
2022/01/05 03:11:21;;;;;;;7.25;4.35;;;;;;;10.67;69.89;98354.31;4439750;32;33468;-64
2022/01/05 03:13:50;;;;;;;10.30;4.68;;;;;;;10.30;68.82;98348.34;4448774;32;34579;-64
2022/01/05 03:16:17;;;;;;;10.05;6.30;;;;;;;10.78;68.41;98350.25;4444213;32;34581;-64
2022/01/05 03:18:44;;;;;;;11.70;7.00;;;;;;;11.02;67.55;98355.03;4441421;32;34204;-64
2022/01/05 03:21:12;;;;;;;15.52;9.10;;;;;;;11.29;66.79;98350.34;4439346;32;33309;-64
2022/01/05 03:23:41;;;;;;;9.93;4.68;;;;;;;10.96;67.16;98351.47;4440574;32;33889;-64
2022/01/05 03:26:08;;;;;;;9.88;4.35;;;;;;;10.33;69.56;98357.88;4439062;32;33579;-64
2022/01/05 03:28:36;;;;;;;7.50;3.92;;;;;;;10.31;69.90;98362.16;4442143;32;32268;-64
2022/01/05 03:31:03;;;;;;;8.23;3.97;;;;;;;10.52;69.21;98354.00;4432825;32;34102;-64
2022/01/05 03:33:31;;;;;;;6.95;3.75;;;;;;;10.59;68.40;98353.28;4450546;32;33557;-64
2022/01/05 03:35:59;;;;;;;8.63;3.65;;;;;;;10.59;68.23;98348.97;4436871;32;33744;-64
2022/01/05 03:38:28;;;;;;;7.70;3.17;;;;;;;10.86;67.60;98352.13;4440491;32;32580;-64
2022/01/05 03:40:56;;;;;;;7.60;3.53;;;;;;;10.87;68.25;98354.72;4436944;32;33420;-64
2022/01/05 03:43:23;;;;;;;7.80;3.95;;;;;;;10.85;68.44;98345.19;4441241;32;34066;-64
2022/01/05 03:45:51;;;;;;;8.93;3.35;;;;;;;10.80;68.69;98348.56;4437584;32;33922;-64
2022/01/05 03:48:20;;;;;;;8.35;3.40;;;;;;;10.78;68.02;98350.25;4440286;32;34796;-64
2022/01/05 03:50:48;;;;;;;7.25;3.50;;;;;;;10.47;69.09;98347.81;4435112;32;34299;-64
2022/01/05 03:53:16;;;;;;;10.32;3.90;;;;;;;10.80;68.14;98345.97;4441207;32;32197;-64
2022/01/05 03:55:44;;;;;;;7.60;3.87;;;;;;;11.01;67.10;98336.88;4424898;32;33983;-64
2022/01/05 03:58:13;;;;;;;11.88;4.55;;;;;;;10.79;67.75;98341.63;4440479;32;34037;-64
2022/01/05 04:00:45;;;;;;;6.47;3.55;;;;;;;11.24;66.77;98324.31;4439002;32;33494;-64
2022/01/05 04:03:14;;;;;;;7.78;3.90;;;;;;;11.08;67.10;98328.38;4434094;32;33993;-64
2022/01/05 04:05:42;;;;;;;8.45;3.80;;;;;;;10.20;68.48;98330.84;4438537;32;32102;-64
2022/01/05 04:08:09;;;;;;;7.78;4.65;;;;;;;10.66;67.31;98320.62;4444844;32;33402;-64
2022/01/05 04:10:37;;;;;;;6.80;3.60;;;;;;;10.78;67.48;98319.16;4441238;32;33446;-64
2022/01/05 04:13:05;;;;;;;6.50;3.53;;;;;;;10.78;67.95;98329.53;4436787;32;34101;-64
2022/01/05 04:15:32;;;;;;;7.10;3.65;;;;;;;11.32;66.36;98317.59;4441923;32;33487;-64
2022/01/05 04:18:00;;;;;;;8.45;3.20;;;;;;;10.91;67.47;98319.38;4442073;32;34638;-64
2022/01/05 04:20:27;;;;;;;6.35;3.22;;;;;;;10.95;67.73;98321.19;4439673;32;33438;-64
2022/01/05 04:22:55;;;;;;;7.03;2.55;;;;;;;11.29;66.30;98316.66;4435808;32;33378;-64
2022/01/05 04:25:23;;;;;;;6.03;3.08;;;;;;;11.23;66.83;98301.87;4438821;32;32318;-64
2022/01/05 04:27:51;;;;;;;7.68;3.87;;;;;;;11.10;67.02;98305.94;4437742;32;33616;-64
2022/01/05 04:30:18;;;;;;;9.18;4.22;;;;;;;11.15;66.92;98304.31;4439507;32;33382;-64
2022/01/05 04:32:46;;;;;;;6.87;3.22;;;;;;;11.14;66.70;98312.94;4440369;32;33258;-64
2022/01/05 04:35:33;;;;;;;6.03;3.40;;;;;;;11.09;66.77;98308.53;4436250;32;33789;-64
2022/01/05 04:38:01;;;;;;;6.97;3.85;;;;;;;11.14;66.77;98315.50;4445764;32;33743;-64
2022/01/05 04:40:31;;;;;;;6.60;3.97;;;;;;;10.99;67.00;98317.81;4438663;32;34265;-64
2022/01/05 04:42:58;;;;;;;6.50;3.83;;;;;;;10.95;67.23;98322.09;4447031;32;33785;-64
2022/01/05 04:45:26;;;;;;;5.60;3.12;;;;;;;11.11;66.68;98312.88;4433787;32;33784;-64
2022/01/05 04:47:54;;;;;;;6.35;3.60;;;;;;;11.16;66.88;98305.19;4428739;32;32038;-64
2022/01/05 04:50:21;;;;;;;6.95;3.62;;;;;;;11.05;67.03;98302.41;4438212;32;33490;-64
2022/01/05 04:52:49;;;;;;;6.78;3.80;;;;;;;11.14;66.63;98305.16;4439394;32;33819;-65
2022/01/05 04:55:16;;;;;;;6.57;3.37;;;;;;;11.20;66.50;98301.78;4437517;32;34913;-64
2022/01/05 04:57:44;;;;;;;9.35;3.45;;;;;;;11.28;66.18;98295.06;4439316;32;33921;-64
2022/01/05 05:00:12;;;;;;;6.20;3.72;;;;;;;11.18;66.42;98299.19;4438461;32;33596;-65
2022/01/05 05:02:39;;;;;;;6.32;3.67;;;;;;;11.50;65.21;98293.69;4434856;32;33925;-66
2022/01/05 05:05:07;;;;;;;10.10;4.25;;;;;;;10.90;67.33;98296.94;4439458;32;33940;-65
2022/01/05 05:07:35;;;;;;;7.50;3.90;;;;;;;11.44;65.30;98290.12;4439945;32;33868;-65
2022/01/05 05:10:22;;;;;;;6.87;3.50;;;;;;;11.13;66.02;98295.66;4439676;32;34173;-66
2022/01/05 05:12:50;;;;;;;7.30;3.25;;;;;;;11.32;65.58;98301.13;4439166;32;33712;-65
2022/01/05 05:15:17;;;;;;;6.87;3.12;;;;;;;11.02;66.31;98302.34;4439490;32;33861;-65
2022/01/05 05:17:44;;;;;;;5.80;3.10;;;;;;;10.93;66.84;98299.56;4439409;32;34527;-65
2022/01/05 05:20:12;;;;;;;6.95;3.60;;;;;;;11.06;66.17;98304.13;4439585;32;34125;-65
2022/01/05 05:22:40;;;;;;;7.05;3.58;;;;;;;11.07;66.20;98298.12;4438581;32;33848;-65
2022/01/05 05:25:07;;;;;;;5.85;3.10;;;;;;;10.69;67.54;98308.59;4439672;32;33814;-66
2022/01/05 05:27:35;;;;;;;5.40;3.20;;;;;;;11.15;65.96;98309.50;4439262;32;34027;-66
2022/01/05 05:30:22;;;;;;;5.68;3.10;;;;;;;10.95;66.67;98306.53;4437332;32;34372;-65
2022/01/05 05:32:54;;;;;;;5.50;3.30;;;;;;;10.85;66.86;98308.91;4438781;32;34049;-66
2022/01/05 05:35:22;;;;;;;8.65;3.50;;;;;;;11.12;66.28;98314.63;4438524;32;33958;-66
2022/01/05 05:37:49;;;;;;;6.05;3.30;;;;;;;10.61;67.99;98310.19;4439046;32;34000;-65
2022/01/05 05:40:17;;;;;;;9.48;3.72;;;;;;;10.81;67.60;98321.78;4434268;32;32891;-66
2022/01/05 05:42:45;;;;;;;6.68;3.35;;;;;;;10.80;67.55;98322.66;4437087;32;34584;-66
2022/01/05 05:45:12;;;;;;;8.05;3.72;;;;;;;10.89;67.20;98323.66;4437811;32;33789;-65
2022/01/05 05:47:40;;;;;;;8.35;4.50;;;;;;;10.87;67.21;98327.94;4438224;32;34031;-65
2022/01/05 05:50:08;;;;;;;9.80;4.95;;;;;;;10.67;67.53;98332.75;4439455;32;33322;-66
2022/01/05 05:52:36;;;;;;;9.52;4.18;;;;;;;10.89;66.68;98344.41;4437939;32;33883;-65
2022/01/05 05:55:04;;;;;;;8.98;4.70;;;;;;;10.72;67.49;98350.13;4438123;32;33939;-65
2022/01/05 05:57:40;;;;;;;11.80;5.28;;;;;;;10.96;66.67;98335.91;4434059;32;33721;-65
2022/01/05 06:00:09;;;;;;;7.47;4.35;;;;;;;10.42;67.61;98335.66;4437378;32;34270;-65
2022/01/05 06:02:37;;;;;;;8.13;4.40;;;;;;;10.46;68.61;98340.91;4435203;32;33032;-65
2022/01/05 06:05:05;;;;;;;9.27;5.25;;;;;;;10.48;68.27;98328.88;4435502;32;34970;-65
2022/01/05 06:07:32;;;;;;;9.70;4.53;;;;;;;10.76;67.15;98336.38;4443496;32;34641;-65
2022/01/05 06:10:00;;;;;;;11.70;5.25;;;;;;;10.64;67.82;98333.53;4439747;32;33442;-65
2022/01/05 06:12:28;;;;;;;6.87;4.28;;;;;;;10.34;68.71;98350.16;4405796;32;33693;-65
2022/01/05 06:14:56;;;;;;;7.72;5.20;;;;;;;10.79;67.00;98336.44;4434008;32;32138;-64
2022/01/05 06:17:23;;;;;;;10.25;5.28;;;;;;;10.50;68.15;98341.00;4437652;32;33708;-65
2022/01/05 06:19:51;;;;;;;6.75;3.87;;;;;;;10.48;68.13;98339.25;4438442;32;33278;-65
2022/01/05 06:22:18;;;;;;;6.10;3.47;;;;;;;10.48;68.01;98339.25;4440750;32;33666;-65
2022/01/05 06:24:49;;;;;;;7.15;3.67;;;;;;;10.67;67.52;98343.97;4435859;32;33182;-64
2022/01/05 06:27:17;;;;;;;6.95;3.40;;;;;;;10.70;67.26;98344.03;4439712;32;33617;-65
2022/01/05 06:29:44;;;;;;;7.82;3.90;;;;;;;10.44;68.51;98333.13;4436160;32;34329;-65
2022/01/05 06:32:12;;;;;;;7.82;3.37;;;;;;;10.48;68.56;98334.06;4441332;32;32444;-66
2022/01/05 06:34:39;;;;;;;7.25;3.70;;;;;;;10.56;68.19;98345.44;4437954;32;32232;-64
2022/01/05 06:37:07;;;;;;;6.93;4.03;;;;;;;10.67;68.29;98354.31;4435969;32;33900;-65
2022/01/05 06:39:35;;;;;;;7.25;4.00;;;;;;;10.67;68.29;98348.28;4436083;32;32965;-65
2022/01/05 06:42:02;;;;;;;8.60;3.80;;;;;;;10.49;68.72;98352.22;4439203;32;33735;-65
2022/01/05 06:44:30;;;;;;;9.05;4.45;;;;;;;10.84;67.57;98349.50;4441776;32;33905;-65
2022/01/05 06:47:02;;;;;;;9.27;5.62;;;;;;;11.07;66.31;98337.00;4439113;32;34616;-65
2022/01/05 06:49:30;;;;;;;10.95;5.75;;;;;;;11.28;65.45;98336.53;4450963;32;33518;-65
2022/01/05 06:51:57;;;;;;;11.95;5.82;;;;;;;11.03;65.77;98330.00;4440873;32;33687;-65
2022/01/05 06:54:25;;;;;;;11.57;5.47;;;;;;;10.68;67.01;98345.72;4448349;32;33685;-65
2022/01/05 06:56:53;;;;;;;9.88;5.15;;;;;;;11.05;65.95;98346.47;4442466;32;33790;-65
2022/01/05 06:59:25;;;;;;;9.73;5.18;;;;;;;10.93;66.70;98353.97;4429373;32;33588;-65
2022/01/05 07:01:53;;;;;;;8.98;5.32;;;;;;;10.97;66.88;98355.78;4443492;32;33391;-65
2022/01/05 07:04:20;;;;;;;9.50;5.28;;;;;;;10.80;67.19;98350.28;4442284;32;33915;-65
2022/01/05 07:06:48;;;;;;;9.43;4.55;;;;;;;10.74;67.25;98358.78;4438761;32;33844;-65
2022/01/05 07:09:16;;;;;;;9.88;4.03;;;;;;;10.63;68.51;98349.91;4441084;32;33637;-65
2022/01/05 07:11:44;;;;;;;9.68;3.95;;;;;;;9.77;71.80;98345.34;4449563;32;33602;-65
2022/01/05 07:14:11;;;;;;;7.75;5.10;;;;;;;9.75;72.53;98342.69;4446253;32;34147;-65
2022/01/05 07:16:39;;;;;;;8.25;4.00;;;;;;;9.91;72.23;98349.16;4451472;32;34365;-65
2022/01/05 07:19:07;;;;;;;9.43;4.78;;;;;;;9.62;73.02;98357.06;4440155;32;31611;-65
2022/01/05 07:21:35;;;;;;;9.60;3.90;;;;;;;9.47;73.94;98353.22;4448083;32;33815;-65
2022/01/05 07:24:04;;;;;;;9.13;4.55;;;;;;;9.12;75.89;98366.94;4430771;32;34635;-65
2022/01/05 07:26:32;;;;;;;7.47;4.32;;;;;;;8.97;77.03;98363.94;4428899;32;33275;-65
2022/01/05 07:28:59;;;;;;;8.57;4.15;;;;;;;8.87;78.04;98356.75;4447264;32;33603;-65
2022/01/05 07:31:27;;;;;;;8.48;4.07;;;;;;;8.80;78.60;98358.28;4438264;32;33628;-65
2022/01/05 07:33:54;;;;;;;8.95;3.95;;;;;;;8.75;79.13;98354.69;4441236;32;34766;-65
2022/01/05 07:36:22;;;;;;;8.68;3.95;;;;;;;8.73;79.44;98358.94;4443671;32;33945;-65
2022/01/05 07:38:49;;;;;;;10.45;4.05;;;;;;;8.74;79.69;98358.09;4435878;32;33412;-64
2022/01/05 07:41:17;;;;;;;8.48;4.18;;;;;;;8.82;79.65;98362.66;4426518;32;33725;-65
2022/01/05 07:43:45;;;;;;;9.13;3.55;;;;;;;8.95;79.33;98350.09;4422657;32;33779;-65
2022/01/05 07:46:16;;;;;;;8.25;3.60;;;;;;;8.99;79.21;98354.50;4434250;32;32342;-65
2022/01/05 07:48:44;;;;;;;7.75;3.47;;;;;;;8.99;79.35;98363.13;4448077;32;32975;-64
2022/01/05 07:51:12;;;;;;;7.85;3.17;;;;;;;9.03;79.55;98356.34;4437169;32;33982;-63
2022/01/05 07:53:40;;;;;;;8.95;4.07;;;;;;;9.09;79.32;98350.47;4441155;32;33841;-64
2022/01/05 07:56:08;;;;;;;8.32;3.70;;;;;;;9.12;79.27;98348.84;4440336;32;34890;-64
2022/01/05 07:58:36;;;;;;;7.62;3.30;;;;;;;9.17;79.11;98343.78;4435676;32;31836;-63
2022/01/05 08:01:04;;;;;;;9.18;3.80;;;;;;;9.15;79.09;98342.88;4439646;32;34514;-64
2022/01/05 08:03:33;;;;;;;7.18;3.17;;;;;;;9.22;79.05;98342.22;4440775;32;33707;-65
2022/01/05 08:06:19;;;;;;;10.43;4.32;;;;;;;9.25;79.02;98348.34;4436150;32;34472;-65
2022/01/05 08:08:48;;;;;;;6.75;3.33;;;;;;;9.33;78.94;98350.25;4440341;32;34136;-64
2022/01/05 08:11:16;;;;;;;8.48;4.25;;;;;;;9.36;78.90;98351.19;4449856;32;33913;-64
2022/01/05 08:13:44;;;;;;;12.77;4.55;;;;;;;9.54;78.60;98360.25;4450462;32;33556;-65
2022/01/05 08:16:12;;;;;;;9.25;3.95;;;;;;;9.50;78.49;98366.19;4437336;32;34296;-65
2022/01/05 08:18:40;;;;;;;11.05;5.10;;;;;;;9.62;78.28;98371.69;4438069;32;34074;-66
2022/01/05 08:21:07;;;;;;;14.00;5.95;;;;;;;9.68;77.80;98368.38;4440643;32;32484;-65
2022/01/05 08:23:35;;;;;;;13.95;6.55;;;;;;;9.77;77.76;98368.59;4446660;32;33979;-65
2022/01/05 08:26:04;;;;;;;10.52;5.97;;;;;;;9.71;77.86;98368.47;4450893;32;33910;-65
2022/01/05 08:28:34;;;;;;;8.57;4.15;;;;;;;9.79;77.75;98359.16;4442121;32;31540;-65
2022/01/05 08:31:03;;;;;;;8.70;3.75;;;;;;;9.81;77.72;98360.06;4431124;32;32711;-65
2022/01/05 08:33:30;;;;;;;7.20;3.50;;;;;;;9.91;77.37;98362.06;4445157;32;34822;-64
2022/01/05 08:36:02;;;;;;;7.15;3.53;;;;;;;9.94;76.92;98374.19;4436193;32;34104;-65
2022/01/05 08:38:31;;;;;;;6.57;3.00;;;;;;;10.02;76.87;98380.41;4447043;32;33208;-65
2022/01/05 08:40:58;;;;;;;8.43;3.25;;;;;;;10.10;76.76;98378.03;4438408;32;34521;-65
2022/01/05 08:43:26;;;;;;;8.40;3.75;;;;;;;10.14;76.38;98382.44;4440534;32;34538;-64
2022/01/05 08:45:54;;;;;;;6.03;3.10;;;;;;;10.18;76.46;98379.09;4439716;32;33684;-64
2022/01/05 08:48:22;;;;;;;8.13;3.10;;;;;;;10.26;75.93;98369.78;4428319;32;34212;-64
2022/01/05 08:50:51;;;;;;;7.75;3.22;;;;;;;10.38;75.86;98377.84;4463363;32;33957;-64
2022/01/05 08:53:19;;;;;;;6.55;3.72;;;;;;;10.30;76.04;98381.09;4450233;32;34160;-64
2022/01/05 08:55:49;;;;;;;10.00;4.70;;;;;;;10.27;75.72;98379.28;4445607;32;33493;-64
2022/01/05 08:58:18;;;;;;;10.02;3.55;;;;;;;10.30;75.67;98374.22;4455407;32;33581;-64
2022/01/05 09:00:46;;;;;;;9.13;3.83;;;;;;;10.39;75.75;98389.97;4430537;32;33878;-64
2022/01/05 09:03:15;;;;;;;9.93;3.67;;;;;;;10.32;75.76;98393.25;4438286;32;34053;-64
2022/01/05 09:05:43;;;;;;;8.13;4.07;;;;;;;10.46;75.48;98395.28;4443122;32;34397;-65
2022/01/05 09:08:12;;;;;;;7.07;3.08;;;;;;;10.55;75.16;98403.25;4447191;32;33739;-64
2022/01/05 09:10:44;;;;;;;6.72;2.55;;;;;;;10.47;75.32;98402.19;4443625;32;33883;-65
2022/01/05 09:13:12;;;;;;;6.95;3.00;;;;;;;10.50;75.14;98399.69;4446725;32;33833;-66
2022/01/05 09:15:40;;;;;;;6.90;2.80;;;;;;;10.62;74.90;98406.03;4450849;32;33760;-66
2022/01/05 09:18:08;;;;;;;8.32;3.00;;;;;;;10.67;74.56;98403.53;4440414;32;33417;-66
2022/01/05 09:20:36;;;;;;;8.57;3.87;;;;;;;10.48;75.12;98409.13;4450397;32;34384;-65
2022/01/05 09:23:04;;;;;;;9.35;4.93;;;;;;;10.54;74.84;98422.22;4442523;32;33984;-66
2022/01/05 09:25:32;;;;;;;7.95;3.58;;;;;;;10.70;74.38;98419.12;4454877;32;33926;-65
2022/01/05 09:28:01;;;;;;;7.97;2.87;;;;;;;10.89;73.65;98419.53;4437778;32;33448;-67
2022/01/05 09:30:29;;;;;;;7.57;4.00;;;;;;;10.23;75.53;98427.50;4443827;32;33771;-67
2022/01/05 09:32:58;;;;;;;7.20;2.90;;;;;;;10.20;76.12;98431.75;4436566;32;33706;-65
2022/01/05 09:35:26;;;;;;;6.95;3.05;;;;;;;10.29;74.52;98436.25;4433276;32;32495;-64
2022/01/05 09:38:07;;;;;;;7.37;3.00;;;;;;;10.08;74.83;98441.78;4439026;32;33290;-64
2022/01/05 09:43:22;;;;;;;6.45;3.37;;;;;;;9.60;76.30;98433.69;4441902;32;34173;-64
2022/01/05 09:45:55;;;;;;;7.18;3.62;;;;;;;9.61;76.75;98438.03;4426549;32;33251;-65
2022/01/05 09:48:30;;;;;;;6.72;3.53;;;;;;;9.97;75.53;98444.13;4436360;32;32272;-64
2022/01/05 09:51:02;;;;;;;7.10;3.95;;;;;;;10.00;75.22;98450.22;4435355;32;34135;-65
2022/01/05 09:53:30;;;;;;;8.27;4.03;;;;;;;10.30;74.58;98441.53;4430007;32;34031;-65
2022/01/05 09:56:18;;;;;;;8.02;5.15;;;;;;;10.82;72.02;98439.25;4444155;32;33938;-65
2022/01/05 09:58:46;;;;;;;6.72;4.12;;;;;;;9.92;75.23;98431.06;4448536;32;33314;-65
2022/01/05 10:01:13;;;;;;;8.52;4.20;;;;;;;9.87;75.92;98434.34;4441986;32;33914;-65
2022/01/05 10:03:41;;;;;;;6.07;3.53;;;;;;;9.80;75.73;98436.78;4449789;32;33857;-66
2022/01/05 10:06:12;;;;;;;7.30;3.83;;;;;;;10.16;74.45;98435.09;4437515;32;33113;-66
2022/01/05 10:08:40;;;;;;;6.35;3.78;;;;;;;10.28;74.32;98430.22;4436071;32;33062;-66
2022/01/05 10:11:10;;;;;;;7.40;3.62;;;;;;;9.59;76.81;98437.09;4434465;32;33899;-66
2022/01/05 10:13:37;;;;;;;7.90;3.95;;;;;;;10.61;73.18;98439.66;4439906;32;33920;-66
2022/01/05 10:16:05;;;;;;;9.07;4.70;;;;;;;10.06;74.34;98448.63;4446978;32;33659;-64
2022/01/05 10:18:42;;;;;;;9.40;5.15;;;;;;;9.81;76.45;98453.19;4418356;32;34036;-65
2022/01/05 10:21:12;;;;;;;7.00;3.85;;;;;;;10.79;72.56;98445.22;4448851;32;33797;-66
2022/01/05 10:23:51;;;;;;;11.23;4.70;;;;;;;10.79;72.40;98440.03;4442602;32;33715;-64
2022/01/05 10:26:34;;;;;;;6.80;4.20;;;;;;;10.56;72.81;98446.41;4442591;32;34632;-65
2022/01/05 10:29:14;;;;;;;7.85;3.35;;;;;;;10.60;73.14;98437.87;4441599;32;33625;-65
2022/01/05 10:31:43;;;;;;;6.68;3.58;;;;;;;10.55;72.87;98434.34;4449906;32;33814;-64
2022/01/05 10:34:20;;;;;;;8.57;5.00;;;;;;;10.37;73.04;98435.66;4445478;32;33674;-65
2022/01/05 10:36:53;;;;;;;5.55;3.25;;;;;;;10.41;72.71;98440.06;4442589;32;33725;-65
2022/01/05 10:39:29;;;;;;;5.70;3.67;;;;;;;10.12;73.34;98438.44;4442189;32;33329;-65
2022/01/05 10:42:03;;;;;;;4.80;2.95;;;;;;;9.52;75.31;98436.91;4447786;32;33848;-65
2022/01/05 10:44:31;;;;;;;4.18;2.15;;;;;;;9.93;73.78;98443.16;4443680;32;33876;-64
2022/01/05 10:47:00;;;;;;;6.00;3.58;;;;;;;9.51;75.67;98443.78;4444999;32;33754;-65
2022/01/05 10:49:31;;;;;;;3.80;2.00;;;;;;;9.94;73.82;98447.50;4429298;32;33324;-66
2022/01/05 10:52:02;;;;;;;5.47;2.72;;;;;;;9.53;75.56;98461.94;4441238;32;34526;-65
2022/01/05 10:54:30;;;;;;;6.53;3.15;;;;;;;9.53;75.24;98467.97;4437635;32;33173;-65
2022/01/05 10:57:09;;;;;;;4.95;2.83;;;;;;;10.00;74.54;98457.12;4449246;32;32026;-66
2022/01/05 10:59:42;;;;;;;5.72;3.00;;;;;;;9.21;78.35;98470.53;4429792;32;33314;-65
2022/01/05 11:02:25;;;;;;;4.57;2.22;;;;;;;9.59;77.18;98459.50;4434490;32;33258;-65
2022/01/05 11:04:58;;;;;;;2.35;1.30;;;;;;;9.29;78.57;98472.44;4447957;32;34709;-66
2022/01/05 11:07:34;;;;;;;3.00;1.20;;;;;;;9.31;77.78;98460.44;4441150;32;33843;-67
2022/01/05 11:10:06;;;;;;;2.40;1.10;;;;;;;8.77;80.04;98472.69;4445940;32;33531;-66
2022/01/05 11:12:36;;;;;;;4.47;1.27;;;;;;;8.87;80.43;98483.28;4448124;32;33855;-64
2022/01/05 11:15:36;;;;;;;2.85;1.30;;;;;;;8.70;80.98;98486.22;4428530;32;34114;-65
2022/01/05 11:18:20;;;;;;;2.20;1.02;;;;;;;8.46;82.12;98492.37;4412646;32;34573;-65
2022/01/05 11:21:07;;;;;;;3.65;0.70;;;;;;;8.39;82.17;98500.69;4436569;32;33511;-66
2022/01/05 11:23:35;;;;;;;2.30;1.02;;;;;;;8.75;80.54;98497.56;4430817;32;34631;-66
2022/01/05 11:26:03;;;;;;;2.78;0.90;;;;;;;8.69;80.31;98489.63;4441373;32;33770;-66
2022/01/05 11:28:30;;;;;;;2.55;0.95;;;;;;;8.93;78.95;98489.50;4448004;32;34648;-65
2022/01/05 11:30:58;;;;;;;1.80;0.65;;;;;;;8.41;79.55;98493.91;4437436;32;33350;-64
2022/01/05 11:33:26;;;;;;;1.30;0.60;;;;;;;8.11;81.80;98504.06;4434756;32;33615;-66
2022/01/05 11:35:53;;;;;;;1.87;0.62;;;;;;;8.52;79.92;98498.53;4435791;32;33788;-69
2022/01/05 11:38:21;;;;;;;3.30;0.80;;;;;;;8.29;78.79;98498.66;4434513;32;33958;-65
2022/01/05 11:40:56;;;;;;;3.60;0.85;;;;;;;8.25;79.93;98522.59;4442134;32;33403;-66
2022/01/05 11:43:31;;;;;;;;;;;;;;;8.80;78.71;98541.59;4450507;32;34008;-64
2022/01/05 11:46:14;;;;;;;4.35;1.30;;;;;;;8.50;79.03;98549.22;4447689;32;34205;-64